createdAt,value
2019-03-24T00:00:58.633Z,34.63
2019-03-24T00:03:33.257Z,34.53
2019-03-24T00:06:08.388Z,32.10
2019-03-24T00:08:43.300Z,33.35
2019-03-24T00:11:18.560Z,33.92
2019-03-24T00:13:53.491Z,31.80
2019-03-24T00:16:28.407Z,30.45
2019-03-24T00:19:02.606Z,28.12
2019-03-24T00:21:37.228Z,28.55
2019-03-24T00:24:11.370Z,28.25
2019-03-24T00:26:45.478Z,28.00
2019-03-24T00:29:20.529Z,27.22
2019-03-24T00:31:55.359Z,26.50
2019-03-24T00:34:29.863Z,24.67
2019-03-24T00:37:04.908Z,23.15
2019-03-24T00:39:39.979Z,22.98
2019-03-24T00:42:14.354Z,23.25
2019-03-24T00:44:49.404Z,23.25
2019-03-24T00:47:24.441Z,23.12
2019-03-24T00:49:58.843Z,22.73
2019-03-24T00:52:33.520Z,22.42
2019-03-24T00:55:08.223Z,22.13
2019-03-24T00:57:43.895Z,23.18
2019-03-24T01:00:21.058Z,23.83
2019-03-24T01:02:55.984Z,22.07
2019-03-24T01:05:30.819Z,20.48
2019-03-24T01:08:05.935Z,21.82
2019-03-24T01:10:40.871Z,22.02
2019-03-24T01:13:16.756Z,22.32
2019-03-24T01:15:51.377Z,20.68
2019-03-24T01:18:25.793Z,20.95
2019-03-24T01:21:00.952Z,19.87
2019-03-24T01:23:35.968Z,19.82
2019-03-24T01:26:10.672Z,18.87
2019-03-24T01:28:45.217Z,19.10
2019-03-24T01:31:19.807Z,19.37
2019-03-24T01:33:54.753Z,18.80
2019-03-24T01:36:29.808Z,18.52
2019-03-24T01:39:05.401Z,20.10
2019-03-24T01:41:40.716Z,18.98
2019-03-24T01:44:15.453Z,18.67
2019-03-24T01:46:50.437Z,18.62
2019-03-24T01:49:25.050Z,18.00
2019-03-24T01:52:00.021Z,18.05
2019-03-24T01:54:34.163Z,18.70
2019-03-24T01:57:09.134Z,19.30
2019-03-24T01:59:44.097Z,18.35
2019-03-24T02:02:18.307Z,17.95
2019-03-24T02:04:53.239Z,18.45
2019-03-24T02:07:28.268Z,18.30
2019-03-24T02:10:02.371Z,17.57
2019-03-24T02:12:37.131Z,19.48
2019-03-24T02:15:12.144Z,18.85
2019-03-24T02:17:46.677Z,17.45
2019-03-24T02:20:21.804Z,17.55
2019-03-24T02:22:56.859Z,17.30
2019-03-24T02:25:32.197Z,17.23
2019-03-24T02:28:06.724Z,17.57
2019-03-24T02:30:41.252Z,17.37
2019-03-24T02:33:15.720Z,16.35
2019-03-24T02:35:50.371Z,17.20
2019-03-24T02:38:24.694Z,16.07
2019-03-24T02:40:59.955Z,16.20
2019-03-24T02:43:34.328Z,16.93
2019-03-24T02:46:08.504Z,16.00
2019-03-24T02:48:44.069Z,14.60
2019-03-24T02:51:19.095Z,15.30
2019-03-24T02:53:54.104Z,15.80
2019-03-24T02:56:28.651Z,14.80
2019-03-24T02:59:03.177Z,16.42
2019-03-24T03:01:37.746Z,15.72
2019-03-24T03:04:12.389Z,15.05
2019-03-24T03:06:46.987Z,14.80
2019-03-24T03:09:21.302Z,14.78
2019-03-24T03:11:56.488Z,16.93
2019-03-24T03:14:31.609Z,16.37
2019-03-24T03:17:06.772Z,14.85
2019-03-24T03:19:41.703Z,15.80
2019-03-24T03:22:16.608Z,15.68
2019-03-24T03:24:51.661Z,15.23
2019-03-24T03:27:26.679Z,15.90
2019-03-24T03:30:01.015Z,15.68
2019-03-24T03:32:36.158Z,15.15
2019-03-24T03:35:12.535Z,16.30
2019-03-24T03:37:47.594Z,16.37
2019-03-24T03:40:22.113Z,16.00
2019-03-24T03:42:57.347Z,14.25
2019-03-24T03:45:32.772Z,13.95
2019-03-24T03:48:07.289Z,16.40
2019-03-24T03:50:42.238Z,15.85
2019-03-24T03:53:17.163Z,14.63
2019-03-24T03:55:51.760Z,14.28
2019-03-24T03:58:25.901Z,15.03
2019-03-24T04:01:01.038Z,14.80
2019-03-24T04:03:35.987Z,14.47
2019-03-24T04:06:10.974Z,14.73
2019-03-24T04:08:45.648Z,15.38
2019-03-24T04:11:20.789Z,14.85
2019-03-24T04:13:55.698Z,15.15
2019-03-24T04:16:30.242Z,15.00
2019-03-24T04:19:04.265Z,15.98
2019-03-24T04:21:39.241Z,15.48
2019-03-24T04:24:14.200Z,14.43
2019-03-24T04:26:49.703Z,14.30
2019-03-24T04:29:24.408Z,16.27
2019-03-24T04:31:59.041Z,14.50
2019-03-24T04:34:33.852Z,15.38
2019-03-24T04:37:08.658Z,15.13
2019-03-24T04:39:43.695Z,15.78
2019-03-24T04:42:18.732Z,15.88
2019-03-24T04:44:53.350Z,14.63
2019-03-24T04:47:28.164Z,16.95
2019-03-24T04:50:03.196Z,16.40
2019-03-24T04:52:40.504Z,17.85
2019-03-24T04:55:15.192Z,16.85
2019-03-24T04:57:50.364Z,17.92
2019-03-24T05:00:37.319Z,19.27
2019-03-24T05:03:11.841Z,17.70
2019-03-24T05:05:47.287Z,18.23
2019-03-24T05:08:22.475Z,18.15
2019-03-24T05:10:57.559Z,17.75
2019-03-24T05:13:32.048Z,17.60
2019-03-24T05:16:06.986Z,17.82
2019-03-24T05:18:41.915Z,17.62
2019-03-24T05:21:16.663Z,18.32
2019-03-24T05:23:51.100Z,17.20
2019-03-24T05:26:25.446Z,17.20
2019-03-24T05:29:00.500Z,17.10
2019-03-24T05:31:35.352Z,17.70
2019-03-24T05:34:10.807Z,16.77
2019-03-24T05:36:47.031Z,16.95
2019-03-24T05:39:21.603Z,18.17
2019-03-24T05:41:56.567Z,16.90
2019-03-24T05:44:31.278Z,17.67
2019-03-24T05:47:06.395Z,16.60
2019-03-24T05:49:40.721Z,17.67
2019-03-24T05:52:15.621Z,18.80
2019-03-24T05:54:50.116Z,16.48
2019-03-24T05:57:24.674Z,16.97
2019-03-24T05:59:59.017Z,16.52
2019-03-24T06:02:33.937Z,17.25
2019-03-24T06:05:08.770Z,17.23
2019-03-24T06:07:44.399Z,17.25
2019-03-24T06:10:19.554Z,18.62
2019-03-24T06:12:53.971Z,17.02
2019-03-24T06:15:29.013Z,16.93
2019-03-24T06:18:04.071Z,18.45
2019-03-24T06:20:39.571Z,18.10
2019-03-24T06:23:14.521Z,18.02
2019-03-24T06:25:49.059Z,17.87
2019-03-24T06:28:23.956Z,18.17
2019-03-24T06:30:58.092Z,18.00
2019-03-24T06:33:32.232Z,17.30
2019-03-24T06:36:06.279Z,16.77
2019-03-24T06:38:41.490Z,18.30
2019-03-24T06:41:15.600Z,17.15
2019-03-24T06:43:50.098Z,17.80
2019-03-24T06:46:24.623Z,18.95
2019-03-24T06:49:00.140Z,16.77
2019-03-24T06:51:36.152Z,16.85
2019-03-24T06:54:11.494Z,18.15
2019-03-24T06:56:46.711Z,17.40
2019-03-24T06:59:21.442Z,17.23
2019-03-24T07:01:56.470Z,18.10
2019-03-24T07:04:30.897Z,17.52
2019-03-24T07:07:06.588Z,17.35
2019-03-24T07:09:41.252Z,16.80
2019-03-24T07:12:16.661Z,16.60
2019-03-24T07:14:50.701Z,17.27
2019-03-24T07:17:24.643Z,16.05
2019-03-24T07:19:59.010Z,16.27
2019-03-24T07:22:31.726Z,15.90
2019-03-24T07:25:06.137Z,15.88
2019-03-24T07:27:39.380Z,16.80
2019-03-24T07:30:14.164Z,16.57
2019-03-24T07:32:47.779Z,15.38
2019-03-24T07:35:23.739Z,15.13
2019-03-24T07:37:56.492Z,14.53
2019-03-24T07:40:30.851Z,13.25
2019-03-24T07:43:05.229Z,12.65
2019-03-24T07:45:40.606Z,14.00
2019-03-24T07:48:19.304Z,12.33
2019-03-24T07:50:50.065Z,11.22
2019-03-24T07:53:25.628Z,11.25
2019-03-24T07:55:59.345Z,12.25
2019-03-24T07:58:33.871Z,9.85
2019-03-24T08:01:08.433Z,10.75
2019-03-24T08:03:43.285Z,10.10
2019-03-24T08:06:18.161Z,10.05
2019-03-24T08:08:52.587Z,8.25
2019-03-24T08:11:27.014Z,8.30
2019-03-24T08:14:02.188Z,8.43
2019-03-24T08:16:36.589Z,8.98
2019-03-24T08:19:11.251Z,8.08
2019-03-24T08:21:45.803Z,7.08
2019-03-24T08:24:20.530Z,9.20
2019-03-24T08:26:54.986Z,10.15
2019-03-24T08:29:29.981Z,9.15
2019-03-24T08:32:04.111Z,9.68
2019-03-24T08:34:38.270Z,8.70
2019-03-24T08:37:13.259Z,9.33
2019-03-24T08:39:48.597Z,7.45
2019-03-24T08:42:24.982Z,7.03
2019-03-24T08:45:00.489Z,6.53
2019-03-24T08:47:35.972Z,7.12
2019-03-24T08:50:09.621Z,7.28
2019-03-24T08:52:43.867Z,6.70
2019-03-24T08:55:18.891Z,6.22
2019-03-24T08:57:53.964Z,6.40
2019-03-24T09:00:31.652Z,6.55
2019-03-24T09:03:10.106Z,6.87
2019-03-24T09:05:45.073Z,6.30
2019-03-24T09:08:20.859Z,6.60
2019-03-24T09:10:55.504Z,6.45
2019-03-24T09:13:29.609Z,5.95
2019-03-24T09:16:04.584Z,5.83
2019-03-24T09:18:39.355Z,6.53
2019-03-24T09:21:14.341Z,5.83
2019-03-24T09:23:49.767Z,5.47
2019-03-24T09:26:24.167Z,5.70
2019-03-24T09:28:59.366Z,5.90
2019-03-24T09:31:34.534Z,6.33
2019-03-24T09:34:09.196Z,6.03
2019-03-24T09:36:43.676Z,6.05
2019-03-24T09:39:19.140Z,6.05
2019-03-24T09:41:53.963Z,6.65
2019-03-24T09:44:28.281Z,5.47
2019-03-24T09:47:03.120Z,5.42
2019-03-24T09:49:36.609Z,5.37
2019-03-24T09:52:09.485Z,4.97
2019-03-24T09:54:43.712Z,5.22
2019-03-24T09:57:19.442Z,5.42
2019-03-24T09:59:52.577Z,6.05
2019-03-24T10:02:26.058Z,4.90
2019-03-24T10:04:59.874Z,5.83
2019-03-24T10:07:37.869Z,5.60
2019-03-24T10:10:13.891Z,5.55
2019-03-24T10:12:49.106Z,5.30
2019-03-24T10:15:22.775Z,5.45
2019-03-24T10:17:55.709Z,5.28
2019-03-24T10:20:30.048Z,5.47
2019-03-24T10:23:04.330Z,5.83
2019-03-24T10:25:39.183Z,5.67
2019-03-24T10:28:13.752Z,5.35
2019-03-24T10:30:47.731Z,6.12
2019-03-24T10:33:22.157Z,5.55
2019-03-24T10:35:57.419Z,5.33
2019-03-24T10:38:31.736Z,5.28
2019-03-24T10:41:04.762Z,4.40
2019-03-24T10:43:38.056Z,4.42
2019-03-24T10:46:11.684Z,4.55
2019-03-24T10:48:45.934Z,4.65
2019-03-24T10:51:20.699Z,4.08
2019-03-24T10:53:54.209Z,4.22
2019-03-24T10:56:27.757Z,4.50
2019-03-24T10:59:01.348Z,4.40
2019-03-24T11:01:37.133Z,5.58
2019-03-24T11:04:11.558Z,4.65
2019-03-24T11:06:45.216Z,5.53
2019-03-24T11:09:19.583Z,4.70
2019-03-24T11:11:54.154Z,5.70
2019-03-24T11:14:28.840Z,5.60
2019-03-24T11:17:03.353Z,4.67
2019-03-24T11:19:38.406Z,5.47
2019-03-24T11:22:12.154Z,5.30
2019-03-24T11:24:47.300Z,5.72
2019-03-24T11:27:21.689Z,5.53
2019-03-24T11:30:00.315Z,4.90
2019-03-24T11:32:34.767Z,5.25
2019-03-24T11:35:09.325Z,5.55
2019-03-24T11:37:44.237Z,5.65
2019-03-24T11:40:18.748Z,5.58
2019-03-24T11:42:53.135Z,5.53
2019-03-24T11:45:28.045Z,5.15
2019-03-24T11:48:02.438Z,5.65
2019-03-24T11:50:36.948Z,4.97
2019-03-24T11:53:11.390Z,5.78
2019-03-24T11:55:45.752Z,4.80
2019-03-24T11:58:20.519Z,5.55
2019-03-24T12:00:56.787Z,6.28
2019-03-24T12:03:31.208Z,5.37
2019-03-24T12:06:14.423Z,5.65
2019-03-24T12:08:42.117Z,4.72
2019-03-24T12:11:17.428Z,5.15
2019-03-24T12:13:52.186Z,5.05
2019-03-24T12:16:26.577Z,4.70
2019-03-24T12:19:01.364Z,5.35
2019-03-24T12:21:36.582Z,4.80
2019-03-24T12:24:11.186Z,5.30
2019-03-24T12:26:45.906Z,4.80
2019-03-24T12:29:20.714Z,5.10
2019-03-24T12:31:56.239Z,4.75
2019-03-24T12:34:31.151Z,4.72
2019-03-24T12:37:06.796Z,4.60
2019-03-24T12:39:41.960Z,4.47
2019-03-24T12:42:16.810Z,4.35
2019-03-24T12:44:51.375Z,4.20
2019-03-24T12:47:25.946Z,4.62
2019-03-24T12:50:08.911Z,4.55
2019-03-24T12:52:37.105Z,3.83
2019-03-24T12:55:12.293Z,4.95
2019-03-24T12:57:46.534Z,4.30
2019-03-24T13:00:40.973Z,4.12
2019-03-24T13:03:15.231Z,4.25
2019-03-24T13:05:49.661Z,4.35
2019-03-24T13:08:22.944Z,4.40
2019-03-24T13:10:57.672Z,4.22
2019-03-24T13:13:30.863Z,4.37
2019-03-24T13:16:06.008Z,3.90
2019-03-24T13:18:40.738Z,4.35
2019-03-24T13:21:14.737Z,4.40
2019-03-24T13:23:48.853Z,4.05
2019-03-24T13:26:22.263Z,3.98
2019-03-24T13:28:56.105Z,3.90
2019-03-24T13:31:29.044Z,4.35
2019-03-24T13:34:03.386Z,4.40
2019-03-24T13:36:39.023Z,4.15
2019-03-24T13:39:12.855Z,3.90
2019-03-24T13:41:48.378Z,3.80
2019-03-24T13:44:22.210Z,4.28
2019-03-24T13:46:56.405Z,4.25
2019-03-24T13:49:30.566Z,4.20
2019-03-24T13:52:05.463Z,4.50
2019-03-24T13:54:39.767Z,4.85
2019-03-24T13:57:13.180Z,4.33
2019-03-24T13:59:48.064Z,4.60
2019-03-24T14:02:22.858Z,4.40
2019-03-24T14:04:57.813Z,4.58
2019-03-24T14:07:32.742Z,3.92
2019-03-24T14:10:07.473Z,4.30
2019-03-24T14:12:42.822Z,4.47
2019-03-24T14:15:17.468Z,4.28
2019-03-24T14:17:51.421Z,4.55
2019-03-24T14:20:26.462Z,4.35
2019-03-24T14:23:01.122Z,4.53
2019-03-24T14:25:36.107Z,4.33
2019-03-24T14:28:11.051Z,4.05
2019-03-24T14:30:53.102Z,4.00
2019-03-24T14:33:27.657Z,3.85
2019-03-24T14:36:02.348Z,3.87
2019-03-24T14:38:37.507Z,4.35
2019-03-24T14:41:12.277Z,4.25
2019-03-24T14:43:47.181Z,4.10
2019-03-24T14:46:21.856Z,4.15
2019-03-24T14:48:56.973Z,3.90
2019-03-24T14:51:31.113Z,3.83
2019-03-24T14:54:06.022Z,4.15
2019-03-24T14:56:41.383Z,3.92
2019-03-24T14:59:15.371Z,4.03
2019-03-24T15:01:51.659Z,3.98
2019-03-24T15:04:26.171Z,4.03
2019-03-24T15:07:01.223Z,3.90
2019-03-24T15:09:35.840Z,3.50
2019-03-24T15:12:10.776Z,4.00
2019-03-24T15:14:45.210Z,3.95
2019-03-24T15:17:19.800Z,4.37
2019-03-24T15:19:54.690Z,4.62
2019-03-24T15:22:30.587Z,4.12
2019-03-24T15:25:04.974Z,3.87
2019-03-24T15:27:39.147Z,4.20
2019-03-24T15:30:13.794Z,3.83
2019-03-24T15:32:48.459Z,4.30
2019-03-24T15:35:23.241Z,3.85
2019-03-24T15:38:08.056Z,3.80
2019-03-24T15:40:34.413Z,3.90
2019-03-24T15:43:09.635Z,4.08
2019-03-24T15:45:44.232Z,4.50
2019-03-24T15:48:19.127Z,4.42
2019-03-24T15:50:53.669Z,3.65
2019-03-24T15:53:28.811Z,4.40
2019-03-24T15:56:03.613Z,4.58
2019-03-24T15:58:38.439Z,4.92
2019-03-24T16:01:13.271Z,4.55
2019-03-24T16:03:48.303Z,3.92
2019-03-24T16:06:23.240Z,3.83
2019-03-24T16:08:57.812Z,3.90
2019-03-24T16:11:33.031Z,4.42
2019-03-24T16:14:07.513Z,4.05
2019-03-24T16:16:42.644Z,4.20
2019-03-24T16:19:17.596Z,4.08
2019-03-24T16:21:52.271Z,4.00
2019-03-24T16:24:26.367Z,3.58
2019-03-24T16:27:01.580Z,4.17
2019-03-24T16:29:36.609Z,4.30
2019-03-24T16:32:10.895Z,4.50
2019-03-24T16:34:45.666Z,4.72
2019-03-24T16:37:20.104Z,5.62
2019-03-24T16:39:54.488Z,4.95
2019-03-24T16:42:32.020Z,5.25
2019-03-24T16:45:08.335Z,5.15
2019-03-24T16:47:41.476Z,4.70
2019-03-24T16:50:16.662Z,5.20
2019-03-24T16:52:49.780Z,5.22
2019-03-24T16:55:22.978Z,6.28
2019-03-24T16:57:57.535Z,4.58
2019-03-24T17:00:32.688Z,4.03
2019-03-24T17:03:07.569Z,4.78
2019-03-24T17:05:40.743Z,4.75
2019-03-24T17:08:15.280Z,4.47
2019-03-24T17:10:48.789Z,4.55
2019-03-24T17:13:22.390Z,4.60
2019-03-24T17:15:55.179Z,5.60
2019-03-24T17:18:27.900Z,5.47
2019-03-24T17:21:01.247Z,5.40
2019-03-24T17:23:34.543Z,6.00
2019-03-24T17:26:07.937Z,8.95
2019-03-24T17:28:40.694Z,9.58
2019-03-24T17:31:15.630Z,8.80
2019-03-24T17:33:50.713Z,9.55
2019-03-24T17:36:25.596Z,9.58
2019-03-24T17:39:00.257Z,11.28
2019-03-24T17:41:35.382Z,11.88
2019-03-24T17:44:08.911Z,11.90
2019-03-24T17:46:43.259Z,11.75
2019-03-24T17:49:16.913Z,9.23
2019-03-24T17:52:00.404Z,9.25
2019-03-24T17:54:26.742Z,8.18
2019-03-24T17:56:59.516Z,6.62
2019-03-24T17:59:33.521Z,7.00
2019-03-24T18:02:14.242Z,7.90
2019-03-24T18:04:42.280Z,9.08
2019-03-24T18:07:18.188Z,9.70
2019-03-24T18:09:52.817Z,8.70
2019-03-24T18:12:26.569Z,8.95
2019-03-24T18:15:02.691Z,8.78
2019-03-24T18:17:37.340Z,8.63
2019-03-24T18:20:12.135Z,8.83
2019-03-24T18:22:46.737Z,8.63
2019-03-24T18:25:21.746Z,10.08
2019-03-24T18:27:56.393Z,11.68
2019-03-24T18:30:32.477Z,11.40
2019-03-24T18:33:07.286Z,9.70
2019-03-24T18:35:42.335Z,9.88
2019-03-24T18:38:17.133Z,11.70
2019-03-24T18:40:53.000Z,12.45
2019-03-24T18:43:27.093Z,14.15
2019-03-24T18:46:02.149Z,15.00
2019-03-24T18:48:36.771Z,13.65
2019-03-24T18:51:11.403Z,15.23
2019-03-24T18:53:46.006Z,15.65
2019-03-24T18:56:19.562Z,18.05
2019-03-24T18:58:54.584Z,18.77
2019-03-24T19:01:28.394Z,17.73
2019-03-24T19:04:02.108Z,16.65
2019-03-24T19:06:37.289Z,17.25
2019-03-24T19:09:12.469Z,17.45
2019-03-24T19:11:45.646Z,17.17
2019-03-24T19:14:18.514Z,17.95
2019-03-24T19:16:51.931Z,18.40
2019-03-24T19:19:29.363Z,17.60
2019-03-24T19:22:03.394Z,16.32
2019-03-24T19:24:39.495Z,16.65
2019-03-24T19:27:13.470Z,14.85
2019-03-24T19:29:46.726Z,13.45
2019-03-24T19:32:19.389Z,13.20
2019-03-24T19:34:53.762Z,12.60
2019-03-24T19:37:28.150Z,11.70
2019-03-24T19:40:02.831Z,11.38
2019-03-24T19:42:36.251Z,10.63
2019-03-24T19:45:10.220Z,10.90
2019-03-24T19:47:43.500Z,9.45
2019-03-24T19:50:20.265Z,8.88
2019-03-24T19:52:54.016Z,9.38
2019-03-24T19:55:27.172Z,9.53
2019-03-24T19:58:00.395Z,9.45
2019-03-24T20:00:33.549Z,8.35
2019-03-24T20:03:09.173Z,8.33
2019-03-24T20:05:43.249Z,10.32
2019-03-24T20:08:16.609Z,10.20
2019-03-24T20:11:17.241Z,9.23
2019-03-24T20:13:50.985Z,8.83
2019-03-24T20:16:25.427Z,10.03
2019-03-24T20:19:00.901Z,9.28
2019-03-24T20:21:34.019Z,9.25
2019-03-24T20:24:06.830Z,9.05
2019-03-24T20:26:41.668Z,9.68
2019-03-24T20:29:15.223Z,10.05
2019-03-24T20:31:50.562Z,10.55
2019-03-24T20:34:23.669Z,9.55
2019-03-24T20:36:58.037Z,9.73
2019-03-24T20:39:31.341Z,11.33
2019-03-24T20:42:05.799Z,10.70
2019-03-24T20:44:39.425Z,11.60
2019-03-24T20:47:13.865Z,10.88
2019-03-24T20:49:48.030Z,11.25
2019-03-24T20:52:21.219Z,11.57
2019-03-24T20:54:55.183Z,11.10
2019-03-24T20:57:29.115Z,10.68
2019-03-24T21:00:06.399Z,12.15
2019-03-24T21:02:40.471Z,11.97
2019-03-24T21:05:13.724Z,12.23
2019-03-24T21:07:46.874Z,12.45
2019-03-24T21:10:20.627Z,13.35
2019-03-24T21:12:54.767Z,13.18
2019-03-24T21:15:28.582Z,14.20
2019-03-24T21:18:03.485Z,13.30
2019-03-24T21:20:38.671Z,13.10
2019-03-24T21:23:11.475Z,13.68
2019-03-24T21:25:44.647Z,14.38
2019-03-24T21:28:17.876Z,13.90
2019-03-24T21:30:51.303Z,13.90
2019-03-24T21:33:25.854Z,13.08
2019-03-24T21:35:58.983Z,13.58
2019-03-24T21:38:33.444Z,13.25
2019-03-24T21:41:07.698Z,13.30
2019-03-24T21:43:40.522Z,13.18
2019-03-24T21:46:13.275Z,12.78
2019-03-24T21:48:48.161Z,12.50
2019-03-24T21:51:21.356Z,13.50
2019-03-24T21:53:54.564Z,13.70
2019-03-24T21:56:27.771Z,13.15
2019-03-24T21:59:01.286Z,13.55
2019-03-24T22:01:34.992Z,13.50
2019-03-24T22:04:07.815Z,13.48
2019-03-24T22:06:41.191Z,13.35
2019-03-24T22:09:15.562Z,11.97
2019-03-24T22:11:51.045Z,12.73
2019-03-24T22:14:25.576Z,12.63
2019-03-24T22:16:59.417Z,12.63
2019-03-24T22:19:33.557Z,11.80
2019-03-24T22:22:07.013Z,10.63
2019-03-24T22:24:40.740Z,11.00
2019-03-24T22:27:14.572Z,11.97
2019-03-24T22:29:48.933Z,11.73
2019-03-24T22:32:22.712Z,12.18
2019-03-24T22:34:56.496Z,12.35
2019-03-24T22:37:29.696Z,11.68
2019-03-24T22:40:02.885Z,10.98
2019-03-24T22:42:36.553Z,11.80
2019-03-24T22:45:10.115Z,12.43
2019-03-24T22:47:43.333Z,11.57
2019-03-24T22:50:16.924Z,11.85
2019-03-24T22:52:51.725Z,11.20
2019-03-24T22:55:24.602Z,12.43
2019-03-24T22:57:58.315Z,10.88
2019-03-24T23:01:05.989Z,11.70
2019-03-24T23:03:41.278Z,11.63
2019-03-24T23:06:14.995Z,11.93
2019-03-24T23:08:49.325Z,11.90
2019-03-24T23:11:23.728Z,11.18
2019-03-24T23:13:56.595Z,11.40
2019-03-24T23:16:31.480Z,13.25
2019-03-24T23:19:05.418Z,14.25
2019-03-24T23:21:38.802Z,14.73
2019-03-24T23:24:15.601Z,15.15
2019-03-24T23:26:48.759Z,19.27
2019-03-24T23:29:21.591Z,22.42
2019-03-24T23:31:54.746Z,20.35
2019-03-24T23:34:28.124Z,21.23
2019-03-24T23:37:07.113Z,24.30
2019-03-24T23:39:40.604Z,22.22
2019-03-24T23:42:13.361Z,21.50
2019-03-24T23:44:47.548Z,22.40
2019-03-24T23:47:20.747Z,22.67
2019-03-24T23:49:54.031Z,23.60
2019-03-24T23:52:29.088Z,21.05
2019-03-24T23:55:02.970Z,19.42
2019-03-24T23:57:36.704Z,18.15
